createdAt,value
2023-04-25T00:00:02.305Z,96881.66
2023-04-25T00:02:04.387Z,96878.81
2023-04-25T00:04:08.802Z,96882.16
2023-04-25T00:06:10.304Z,96883.88
2023-04-25T00:08:11.623Z,96886.69
2023-04-25T00:10:13.095Z,96884.25
2023-04-25T00:12:14.436Z,96896.66
2023-04-25T00:14:16.020Z,96890.78
2023-04-25T00:16:17.407Z,96895.19
2023-04-25T00:18:18.905Z,96879.63
2023-04-25T00:20:20.249Z,96883.47
2023-04-25T00:22:21.626Z,96884.09
2023-04-25T00:24:22.978Z,96892.47
2023-04-25T00:26:24.781Z,96888.97
2023-04-25T00:28:26.075Z,96885.47
2023-04-25T00:30:27.370Z,96876.84
2023-04-25T00:32:28.748Z,96876.72
2023-04-25T00:34:30.172Z,96877.47
2023-04-25T00:36:31.660Z,96878.09
2023-04-25T00:38:33.082Z,96875.50
2023-04-25T00:40:34.409Z,96877.97
2023-04-25T00:42:35.762Z,96876.25
2023-04-25T00:44:37.095Z,96870.38
2023-04-25T00:46:38.708Z,96881.56
2023-04-25T00:48:40.018Z,96875.75
2023-04-25T00:50:41.335Z,96870.50
2023-04-25T00:52:42.742Z,96875.63
2023-04-25T00:54:44.037Z,96871.28
2023-04-25T00:56:46.323Z,96868.59
2023-04-25T00:58:47.638Z,96875.38
2023-04-25T01:00:49.057Z,96869.44
2023-04-25T01:02:51.041Z,96865.16
2023-04-25T01:04:52.415Z,96865.16
2023-04-25T01:06:53.705Z,96873.56
2023-04-25T01:08:55.018Z,96864.88
2023-04-25T01:10:56.338Z,96855.69
2023-04-25T01:12:57.640Z,96857.50
2023-04-25T01:14:59.031Z,96862.72
2023-04-25T01:17:00.500Z,96867.13
2023-04-25T01:19:01.944Z,96873.28
2023-04-25T01:21:03.258Z,96865.66
2023-04-25T01:23:04.580Z,96861.59
2023-04-25T01:25:06.129Z,96855.63
2023-04-25T01:27:07.433Z,96862.53
2023-04-25T01:29:08.734Z,96855.00
2023-04-25T01:31:10.068Z,96853.34
2023-04-25T01:33:11.374Z,96858.41
2023-04-25T01:35:12.754Z,96854.59
2023-04-25T01:37:14.121Z,96859.16
2023-04-25T01:39:15.413Z,96862.72
2023-04-25T01:41:18.045Z,96865.22
2023-04-25T01:43:19.387Z,96859.34
2023-04-25T01:45:20.710Z,96862.78
2023-04-25T01:47:22.022Z,96858.53
2023-04-25T01:49:23.440Z,96855.13
2023-04-25T01:51:24.740Z,96863.69
2023-04-25T01:53:26.089Z,96861.94
2023-04-25T01:55:27.390Z,96857.59
2023-04-25T01:57:28.710Z,96855.84
2023-04-25T01:59:30.033Z,96860.00
2023-04-25T02:01:31.392Z,96857.47
2023-04-25T02:03:32.858Z,96849.78
2023-04-25T02:05:34.245Z,96859.91
2023-04-25T02:07:35.689Z,96853.63
2023-04-25T02:09:37.000Z,96863.59
2023-04-25T02:11:38.297Z,96854.22
2023-04-25T02:13:39.619Z,96852.56
2023-04-25T02:15:41.059Z,96855.06
2023-04-25T02:17:42.397Z,96849.94
2023-04-25T02:19:43.798Z,96849.13
2023-04-25T02:21:45.143Z,96846.63
2023-04-25T02:23:49.965Z,96842.34
2023-04-25T02:25:51.465Z,96843.28
2023-04-25T02:27:52.766Z,96843.28
2023-04-25T02:29:54.074Z,96840.63
2023-04-25T02:31:55.462Z,96843.25
2023-04-25T02:33:56.815Z,96842.41
2023-04-25T02:35:58.104Z,96852.50
2023-04-25T02:37:59.406Z,96854.22
2023-04-25T02:40:00.765Z,96848.28
2023-04-25T02:42:02.264Z,96846.56
2023-04-25T02:44:03.603Z,96842.28
2023-04-25T02:46:04.940Z,96847.31
2023-04-25T02:48:06.372Z,96843.13
2023-04-25T02:50:07.740Z,96838.06
2023-04-25T02:52:09.092Z,96833.06
2023-04-25T02:54:10.931Z,96836.59
2023-04-25T02:56:12.235Z,96835.91
2023-04-25T02:58:13.846Z,96842.78
2023-04-25T03:00:15.774Z,96844.59
2023-04-25T03:02:17.107Z,96843.06
2023-04-25T03:04:20.260Z,96837.03
2023-04-25T03:06:21.648Z,96840.34
2023-04-25T03:08:23.698Z,96839.59
2023-04-25T03:10:25.001Z,96837.13
2023-04-25T03:12:26.356Z,96832.91
2023-04-25T03:14:27.641Z,96837.16
2023-04-25T03:16:29.110Z,96837.13
2023-04-25T03:18:30.657Z,96835.41
2023-04-25T03:20:32.004Z,96837.97
2023-04-25T03:22:33.308Z,96830.81
2023-04-25T03:24:34.618Z,96833.16
2023-04-25T03:26:35.963Z,96828.88
2023-04-25T03:28:37.288Z,96834.75
2023-04-25T03:30:38.723Z,96837.31
2023-04-25T03:32:40.082Z,96828.69
2023-04-25T03:34:41.873Z,96837.09
2023-04-25T03:36:43.208Z,96835.31
2023-04-25T03:38:44.580Z,96831.84
2023-04-25T03:40:45.903Z,96830.06
2023-04-25T03:42:47.199Z,96830.84
2023-04-25T03:44:48.523Z,96833.41
2023-04-25T03:46:49.851Z,96833.44
2023-04-25T03:48:51.178Z,96838.56
2023-04-25T03:50:52.512Z,96838.69
2023-04-25T03:52:53.847Z,96837.69
2023-04-25T03:54:55.284Z,96829.09
2023-04-25T03:56:56.582Z,96841.94
2023-04-25T03:58:58.052Z,96834.28
2023-04-25T04:00:59.372Z,96833.53
2023-04-25T04:03:00.798Z,96834.53
2023-04-25T04:05:02.588Z,96832.19
2023-04-25T04:07:04.014Z,96839.97
2023-04-25T04:09:05.342Z,96833.34
2023-04-25T04:11:06.790Z,96841.19
2023-04-25T04:13:08.081Z,96842.22
2023-04-25T04:15:09.434Z,96839.81
2023-04-25T04:17:10.737Z,96844.19
2023-04-25T04:19:12.185Z,96846.13
2023-04-25T04:21:13.531Z,96838.53
2023-04-25T04:23:14.849Z,96841.09
2023-04-25T04:25:16.204Z,96840.19
2023-04-25T04:27:18.680Z,96845.16
2023-04-25T04:29:22.320Z,96833.97
2023-04-25T04:31:23.667Z,96845.88
2023-04-25T04:33:25.008Z,96848.31
2023-04-25T04:35:26.329Z,96852.38
2023-04-25T04:37:27.682Z,96845.28
2023-04-25T04:39:29.179Z,96841.69
2023-04-25T04:41:31.213Z,96844.22
2023-04-25T04:43:34.315Z,96849.19
2023-04-25T04:45:35.612Z,96843.16
2023-04-25T04:47:37.934Z,96838.00
2023-04-25T04:49:39.359Z,96837.19
2023-04-25T04:51:41.547Z,96834.63
2023-04-25T04:53:42.837Z,96834.66
2023-04-25T04:55:44.134Z,96834.81
2023-04-25T04:57:45.546Z,96839.09
2023-04-25T04:59:46.884Z,96837.44
2023-04-25T05:01:48.228Z,96839.97
2023-04-25T05:03:49.976Z,96836.59
2023-04-25T05:05:51.652Z,96836.59
2023-04-25T05:07:52.938Z,96843.25
2023-04-25T05:09:54.232Z,96836.13
2023-04-25T05:11:55.662Z,96844.50
2023-04-25T05:13:57.146Z,96844.44
2023-04-25T05:15:58.619Z,96839.41
2023-04-25T05:18:00.001Z,96841.13
2023-04-25T05:20:02.208Z,96840.22
2023-04-25T05:22:03.633Z,96840.97
2023-04-25T05:24:04.986Z,96842.66
2023-04-25T05:26:06.529Z,96851.22
2023-04-25T05:28:07.906Z,96848.72
2023-04-25T05:30:10.067Z,96848.72
2023-04-25T05:32:15.245Z,96847.13
2023-04-25T05:34:17.719Z,96849.88
2023-04-25T05:36:19.093Z,96849.94
2023-04-25T05:38:20.657Z,96849.88
2023-04-25T05:40:21.990Z,96852.44
2023-04-25T05:42:23.311Z,96851.59
2023-04-25T05:44:24.791Z,96853.38
2023-04-25T05:46:26.226Z,96850.78
2023-04-25T05:48:27.563Z,96855.81
2023-04-25T05:50:28.879Z,96854.94
2023-04-25T05:52:30.230Z,96856.56
2023-04-25T05:54:31.551Z,96853.13
2023-04-25T05:56:32.876Z,96863.22
2023-04-25T05:58:34.202Z,96857.22
2023-04-25T06:00:35.532Z,96858.94
2023-04-25T06:02:37.024Z,96853.84
2023-04-25T06:04:38.686Z,96852.88
2023-04-25T06:06:40.336Z,96856.19
2023-04-25T06:08:41.644Z,96856.81
2023-04-25T06:10:42.936Z,96852.03
2023-04-25T06:12:44.287Z,96851.59
2023-04-25T06:14:45.584Z,96845.59
2023-04-25T06:16:46.889Z,96856.69
2023-04-25T06:18:48.181Z,96851.59
2023-04-25T06:20:49.969Z,96856.69
2023-04-25T06:22:51.324Z,96846.47
2023-04-25T06:24:52.656Z,96848.16
2023-04-25T06:26:53.977Z,96861.00
2023-04-25T06:28:55.348Z,96861.47
2023-04-25T06:30:56.667Z,96851.88
2023-04-25T06:32:58.092Z,96853.50
2023-04-25T06:34:59.448Z,96861.13
2023-04-25T06:37:00.784Z,96845.81
2023-04-25T06:39:02.087Z,96850.06
2023-04-25T06:41:06.311Z,96848.41
2023-04-25T06:43:07.780Z,96850.19
2023-04-25T06:45:09.141Z,96852.84
2023-04-25T06:47:10.468Z,96852.00
2023-04-25T06:49:11.883Z,96857.03
2023-04-25T06:51:14.262Z,96852.63
2023-04-25T06:53:15.814Z,96851.47
2023-04-25T06:55:17.153Z,96847.00
2023-04-25T06:57:18.499Z,96855.63
2023-04-25T06:59:19.812Z,96851.59
2023-04-25T07:01:21.171Z,96853.56
2023-04-25T07:03:22.708Z,96843.84
2023-04-25T07:05:24.246Z,96849.44
2023-04-25T07:07:25.852Z,96858.69
2023-04-25T07:09:27.148Z,96859.84
2023-04-25T07:11:28.500Z,96850.88
2023-04-25T07:13:29.812Z,96851.94
2023-04-25T07:15:31.155Z,96857.97
2023-04-25T07:17:32.492Z,96858.03
2023-04-25T07:19:34.185Z,96859.13
2023-04-25T07:21:37.366Z,96857.91
2023-04-25T07:23:41.720Z,96859.78
2023-04-25T07:25:43.019Z,96857.97
2023-04-25T07:27:44.343Z,96856.47
2023-04-25T07:29:45.969Z,96851.44
2023-04-25T07:31:47.396Z,96856.69
2023-04-25T07:33:48.886Z,96857.22
2023-04-25T07:35:50.212Z,96863.75
2023-04-25T07:37:52.126Z,96862.53
2023-04-25T07:39:53.434Z,96851.16
2023-04-25T07:41:55.589Z,96849.03
2023-04-25T07:43:57.063Z,96852.81
2023-04-25T07:45:58.390Z,96854.53
2023-04-25T07:47:59.815Z,96853.13
2023-04-25T07:50:02.255Z,96857.72
2023-04-25T07:52:03.576Z,96855.88
2023-04-25T07:54:06.318Z,96862.34
2023-04-25T07:56:07.645Z,96868.03
2023-04-25T07:58:09.234Z,96862.94
2023-04-25T08:00:10.608Z,96867.34
2023-04-25T08:02:12.010Z,96875.84
2023-04-25T08:04:13.560Z,96877.13
2023-04-25T08:06:15.257Z,96872.72
2023-04-25T08:08:16.690Z,96877.63
2023-04-25T08:10:18.046Z,96876.59
2023-04-25T08:12:20.325Z,96875.38
2023-04-25T08:14:22.926Z,96872.19
2023-04-25T08:16:24.775Z,96866.97
2023-04-25T08:18:26.197Z,96872.53
2023-04-25T08:20:27.629Z,96874.81
2023-04-25T08:22:28.951Z,96875.88
2023-04-25T08:24:30.295Z,96877.31
2023-04-25T08:26:31.642Z,96740.28
2023-04-25T08:28:33.599Z,96876.28
2023-04-25T08:30:34.907Z,96882.06
2023-04-25T08:32:38.950Z,96894.19
2023-04-25T08:34:43.112Z,96880.25
2023-04-25T08:36:44.464Z,96881.66
2023-04-25T08:38:45.921Z,96886.81
2023-04-25T08:40:47.210Z,96889.03
2023-04-25T08:42:48.518Z,96889.63
2023-04-25T08:44:49.805Z,96893.47
2023-04-25T08:46:51.224Z,96896.53
2023-04-25T08:48:54.439Z,96895.34
2023-04-25T08:50:57.892Z,96889.22
2023-04-25T08:52:59.181Z,96910.69
2023-04-25T08:55:00.477Z,96910.88
2023-04-25T08:57:02.998Z,96901.34
2023-04-25T08:59:04.362Z,96906.28
2023-04-25T09:01:05.774Z,96897.66
2023-04-25T09:03:07.291Z,96906.75
2023-04-25T09:05:10.940Z,96898.59
2023-04-25T09:07:12.259Z,96910.41
2023-04-25T09:09:13.593Z,96910.38
2023-04-25T09:11:15.893Z,96917.47
2023-04-25T09:13:17.871Z,96917.03
2023-04-25T09:15:20.696Z,96914.94
2023-04-25T09:17:22.682Z,96916.56
2023-04-25T09:19:38.215Z,96779.09
2023-04-25T09:21:41.367Z,96920.47
2023-04-25T09:23:42.732Z,96910.56
2023-04-25T09:25:44.451Z,96912.53
2023-04-25T09:27:45.802Z,96914.94
2023-04-25T09:29:47.435Z,96914.75
2023-04-25T09:31:48.761Z,96925.16
2023-04-25T09:33:50.688Z,96919.88
2023-04-25T09:35:56.273Z,96916.91
2023-04-25T09:37:57.665Z,96935.66
2023-04-25T09:40:02.183Z,96924.31
2023-04-25T09:42:03.721Z,96920.97
2023-04-25T09:44:05.167Z,96916.19
2023-04-25T09:46:08.495Z,96925.00
2023-04-25T09:48:09.940Z,96928.66
2023-04-25T09:50:11.696Z,96922.41
2023-04-25T09:52:13.010Z,96934.44
2023-04-25T09:54:14.304Z,96929.09
2023-04-25T09:56:15.835Z,96939.41
2023-04-25T09:58:17.173Z,96936.03
2023-04-25T10:00:18.593Z,96951.59
2023-04-25T10:02:22.843Z,96945.84
2023-04-25T10:04:24.265Z,96950.31
2023-04-25T10:06:27.451Z,96956.44
2023-04-25T10:08:28.756Z,96953.88
2023-04-25T10:10:31.546Z,96946.97
2023-04-25T10:12:33.502Z,96950.31
2023-04-25T10:14:34.834Z,96953.63
2023-04-25T10:16:36.247Z,96950.09
2023-04-25T10:18:38.566Z,96956.00
2023-04-25T10:20:39.937Z,96949.22
2023-04-25T10:22:41.384Z,96955.75
2023-04-25T10:24:42.661Z,96956.16
2023-04-25T10:26:43.964Z,96962.94
2023-04-25T10:28:45.291Z,96956.09
2023-04-25T10:30:46.614Z,96952.63
2023-04-25T10:32:48.292Z,96951.69
2023-04-25T10:34:49.636Z,96941.84
2023-04-25T10:36:51.298Z,96937.66
2023-04-25T10:38:52.638Z,96932.44
2023-04-25T10:40:53.973Z,96936.63
2023-04-25T10:42:58.800Z,96936.31
2023-04-25T10:45:00.132Z,96941.38
2023-04-25T10:47:02.343Z,96947.44
2023-04-25T10:49:04.084Z,96948.41
2023-04-25T10:51:05.530Z,96967.16
2023-04-25T10:53:06.827Z,96942.56
2023-04-25T10:55:08.169Z,96955.44
2023-04-25T10:57:09.497Z,96961.41
2023-04-25T10:59:11.468Z,96961.34
2023-04-25T11:01:12.881Z,96966.44
2023-04-25T11:03:14.610Z,96964.81
2023-04-25T11:05:16.166Z,96966.53
2023-04-25T11:07:17.525Z,96967.47
2023-04-25T11:09:18.818Z,96971.84
2023-04-25T11:11:20.227Z,96968.31
2023-04-25T11:13:21.586Z,96966.72
2023-04-25T11:15:22.952Z,96978.72
2023-04-25T11:17:24.324Z,96978.72
2023-04-25T11:19:25.759Z,96980.25
2023-04-25T11:21:29.025Z,96971.91
2023-04-25T11:23:30.468Z,96971.59
2023-04-25T11:25:31.874Z,96981.50
2023-04-25T11:27:33.509Z,96985.41
2023-04-25T11:29:35.013Z,96995.19
2023-04-25T11:31:36.439Z,97001.28
2023-04-25T11:33:37.927Z,96999.84
2023-04-25T11:35:39.264Z,96997.56
2023-04-25T11:37:40.620Z,97005.47
2023-04-25T11:39:41.917Z,96998.88
2023-04-25T11:41:44.741Z,97005.81
2023-04-25T11:43:47.252Z,97003.34
2023-04-25T11:45:49.030Z,97015.34
2023-04-25T11:47:50.490Z,97015.41
2023-04-25T11:49:51.830Z,97007.75
2023-04-25T11:51:53.219Z,97005.19
2023-04-25T11:53:54.536Z,97010.28
2023-04-25T11:55:55.848Z,97008.56
2023-04-25T11:57:57.414Z,97007.75
2023-04-25T11:59:58.706Z,97015.34
2023-04-25T12:02:02.658Z,97014.53
2023-04-25T12:04:04.470Z,97012.84
2023-04-25T12:06:06.667Z,97021.41
2023-04-25T12:08:08.224Z,97023.97
2023-04-25T12:10:09.556Z,97019.63
2023-04-25T12:12:10.965Z,97021.22
2023-04-25T12:14:12.303Z,97017.72
2023-04-25T12:16:13.689Z,97014.03
2023-04-25T12:18:15.101Z,97010.44
2023-04-25T12:20:16.459Z,97026.50
2023-04-25T12:22:17.764Z,97029.81
2023-04-25T12:24:22.491Z,97027.22
2023-04-25T12:26:23.806Z,97030.59
2023-04-25T12:28:25.217Z,97025.53
2023-04-25T12:30:26.547Z,97030.75
2023-04-25T12:32:28.318Z,97038.53
2023-04-25T12:34:29.640Z,97046.28
2023-04-25T12:36:32.205Z,97050.53
2023-04-25T12:38:35.387Z,97059.88
2023-04-25T12:40:36.724Z,97053.88
2023-04-25T12:42:38.034Z,97046.19
2023-04-25T12:44:42.465Z,97051.28
2023-04-25T12:46:43.996Z,97054.59
2023-04-25T12:48:45.519Z,97053.75
2023-04-25T12:50:49.928Z,97059.69
2023-04-25T12:52:51.462Z,97060.47
2023-04-25T12:54:52.761Z,97057.09
2023-04-25T12:56:54.081Z,97064.03
2023-04-25T12:58:55.420Z,97064.03
2023-04-25T13:00:57.149Z,97061.53
2023-04-25T13:02:58.830Z,97065.09
2023-04-25T13:05:00.487Z,97067.78
2023-04-25T13:07:01.912Z,97071.19
2023-04-25T13:09:04.398Z,97071.28
2023-04-25T13:11:05.725Z,97063.59
2023-04-25T13:13:09.949Z,97072.16
2023-04-25T13:15:12.314Z,97078.94
2023-04-25T13:17:13.694Z,97075.59
2023-04-25T13:19:15.005Z,97074.69
2023-04-25T13:21:16.437Z,97080.72
2023-04-25T13:23:17.757Z,97077.38
2023-04-25T13:25:19.877Z,97079.91
2023-04-25T13:27:21.178Z,97077.41
2023-04-25T13:29:22.467Z,97087.56
2023-04-25T13:31:23.790Z,97083.34
2023-04-25T13:33:25.360Z,97095.19
2023-04-25T13:35:26.881Z,97086.69
2023-04-25T13:37:28.453Z,97084.19
2023-04-25T13:39:29.819Z,97090.25
2023-04-25T13:41:31.374Z,97094.63
2023-04-25T13:43:32.720Z,97087.91
2023-04-25T13:45:34.021Z,97091.34
2023-04-25T13:47:35.514Z,97093.84
2023-04-25T13:49:36.869Z,97086.09
2023-04-25T13:51:38.187Z,97080.28
2023-04-25T13:53:40.175Z,97088.09
2023-04-25T13:55:41.586Z,97090.75
2023-04-25T13:57:42.925Z,97091.59
2023-04-25T13:59:44.325Z,97096.69
2023-04-25T14:01:45.753Z,97097.38
2023-04-25T14:03:47.320Z,97103.16
2023-04-25T14:05:48.758Z,97097.91
2023-04-25T14:07:50.095Z,97106.25
2023-04-25T14:09:51.405Z,97103.63
2023-04-25T14:11:53.387Z,97104.34
2023-04-25T14:13:54.807Z,97111.84
2023-04-25T14:15:56.183Z,97115.13
2023-04-25T14:17:57.718Z,97113.44
2023-04-25T14:19:59.085Z,97115.97
2023-04-25T14:22:00.461Z,97115.84
2023-04-25T14:24:01.874Z,97121.75
2023-04-25T14:26:03.452Z,97123.50
2023-04-25T14:28:04.865Z,97126.84
2023-04-25T14:30:06.174Z,97128.56
2023-04-25T14:32:07.628Z,97134.59
2023-04-25T14:34:09.013Z,97131.09
2023-04-25T14:36:10.417Z,97143.00
2023-04-25T14:38:11.750Z,97142.19
2023-04-25T14:40:14.205Z,97141.38
2023-04-25T14:42:15.634Z,97138.75
2023-04-25T14:44:16.928Z,97146.50
2023-04-25T14:46:18.305Z,97135.56
2023-04-25T14:48:20.553Z,97143.25
2023-04-25T14:50:22.034Z,97139.91
2023-04-25T14:52:23.390Z,97135.72
2023-04-25T14:54:25.104Z,97134.06
2023-04-25T14:56:26.465Z,97135.00
2023-04-25T14:58:28.035Z,97140.16
2023-04-25T15:00:31.875Z,97135.94
2023-04-25T15:02:33.340Z,97139.44
2023-04-25T15:04:34.856Z,97144.63
2023-04-25T15:06:36.265Z,97147.28
2023-04-25T15:08:37.610Z,97146.56
2023-04-25T15:10:38.962Z,97150.06
2023-04-25T15:12:40.289Z,97152.69
2023-04-25T15:14:41.590Z,97150.16
2023-04-25T15:16:43.072Z,97151.06
2023-04-25T15:18:44.519Z,97147.78
2023-04-25T15:20:45.852Z,97148.66
2023-04-25T15:22:49.619Z,97155.44
2023-04-25T15:24:51.658Z,97153.75
2023-04-25T15:26:53.280Z,97160.66
2023-04-25T15:28:54.575Z,97159.03
2023-04-25T15:30:56.198Z,97168.47
2023-04-25T15:32:57.554Z,97164.31
2023-04-25T15:34:58.905Z,97167.75
2023-04-25T15:37:00.313Z,97167.81
2023-04-25T15:39:02.207Z,97171.06
2023-04-25T15:41:04.816Z,97169.41
2023-04-25T15:43:07.308Z,97173.56
2023-04-25T15:45:12.153Z,97170.97
2023-04-25T15:47:13.474Z,97172.53
2023-04-25T15:49:14.792Z,97170.75
2023-04-25T15:51:17.217Z,97172.31
2023-04-25T15:53:18.722Z,97168.03
2023-04-25T15:55:21.690Z,97163.72
2023-04-25T15:57:23.112Z,97171.31
2023-04-25T15:59:24.413Z,97169.44
2023-04-25T16:01:26.551Z,97169.28
2023-04-25T16:03:28.372Z,97171.81
2023-04-25T16:05:29.782Z,97176.81
2023-04-25T16:07:31.123Z,97177.66
2023-04-25T16:09:34.088Z,97178.41
2023-04-25T16:11:35.463Z,97176.59
2023-04-25T16:13:36.857Z,97168.88
2023-04-25T16:15:38.783Z,97168.03
2023-04-25T16:17:40.254Z,97177.38
2023-04-25T16:19:41.673Z,97173.09
2023-04-25T16:21:43.009Z,97033.44
2023-04-25T16:23:44.402Z,97172.38
2023-04-25T16:25:45.985Z,97169.97
2023-04-25T16:27:47.298Z,97174.41
2023-04-25T16:29:51.258Z,97176.22
2023-04-25T16:31:52.721Z,97183.97
2023-04-25T16:33:54.294Z,97180.59
2023-04-25T16:35:55.681Z,97148.09
2023-04-25T16:37:57.481Z,97184.97
2023-04-25T16:39:58.789Z,97187.56
2023-04-25T16:42:00.106Z,97191.81
2023-04-25T16:44:02.214Z,97188.44
2023-04-25T16:46:03.560Z,97192.75
2023-04-25T16:48:04.929Z,97180.09
2023-04-25T16:50:06.400Z,97188.69
2023-04-25T16:52:07.696Z,97197.28
2023-04-25T16:54:08.987Z,97198.22
2023-04-25T16:56:13.351Z,97194.84
2023-04-25T16:58:14.708Z,97196.59
2023-04-25T17:00:16.027Z,97196.56
2023-04-25T17:02:17.532Z,97196.59
2023-04-25T17:04:19.080Z,97206.00
2023-04-25T17:06:20.426Z,97208.53
2023-04-25T17:08:22.625Z,97207.69
2023-04-25T17:10:24.038Z,97206.88
2023-04-25T17:12:31.033Z,97216.31
2023-04-25T17:14:35.352Z,97215.56
2023-04-25T17:16:36.787Z,97218.97
2023-04-25T17:18:38.677Z,97221.50
2023-04-25T17:20:40.031Z,97218.06
2023-04-25T17:22:41.686Z,97216.34
2023-04-25T17:24:43.096Z,97221.41
2023-04-25T17:26:46.216Z,97222.09
2023-04-25T17:28:49.810Z,97229.72
2023-04-25T17:30:51.531Z,97228.88
2023-04-25T17:32:53.052Z,97233.84
2023-04-25T17:34:58.266Z,97229.56
2023-04-25T17:37:00.228Z,97234.63
2023-04-25T17:39:02.190Z,97241.50
2023-04-25T17:41:03.893Z,97238.13
2023-04-25T17:43:05.263Z,97239.88
2023-04-25T17:45:06.567Z,97242.44
2023-04-25T17:47:11.382Z,97239.88
2023-04-25T17:49:18.521Z,97253.44
2023-04-25T17:51:19.815Z,97242.34
2023-04-25T17:53:21.117Z,97246.50
2023-04-25T17:55:22.489Z,97259.22
2023-04-25T17:57:25.252Z,97252.41
2023-04-25T17:59:28.028Z,97258.22
2023-04-25T18:01:29.517Z,97252.25
2023-04-25T18:03:31.034Z,97256.56
2023-04-25T18:05:35.811Z,97265.09
2023-04-25T18:07:37.113Z,97262.56
2023-04-25T18:09:38.498Z,97265.94
2023-04-25T18:11:39.792Z,97271.91
2023-04-25T18:13:41.534Z,97266.78
2023-04-25T18:15:42.988Z,97269.28
2023-04-25T18:17:44.351Z,97280.31
2023-04-25T18:19:51.729Z,97281.16
2023-04-25T18:21:54.428Z,97279.50
2023-04-25T18:23:55.824Z,97281.19
2023-04-25T18:25:57.122Z,97286.31
2023-04-25T18:27:59.978Z,97287.25
2023-04-25T18:30:02.265Z,97293.28
2023-04-25T18:32:05.090Z,97298.50
2023-04-25T18:34:07.319Z,97300.28
2023-04-25T18:36:08.674Z,97299.50
2023-04-25T18:38:10.031Z,97307.19
2023-04-25T18:40:13.939Z,97312.28
2023-04-25T18:42:15.696Z,97315.75
2023-04-25T18:44:16.993Z,97309.81
2023-04-25T18:46:28.194Z,97314.91
2023-04-25T18:48:29.663Z,97316.63
2023-04-25T18:50:33.146Z,97194.94
2023-04-25T18:52:34.450Z,97330.25
2023-04-25T18:54:35.790Z,97326.91
2023-04-25T18:56:37.087Z,97333.81
2023-04-25T18:58:38.389Z,97333.91
2023-04-25T19:00:40.123Z,97334.06
2023-04-25T19:02:41.681Z,97340.13
2023-04-25T19:04:46.109Z,97340.25
2023-04-25T19:06:49.901Z,97334.41
2023-04-25T19:08:52.625Z,97337.03
2023-04-25T19:10:54.343Z,97341.22
2023-04-25T19:12:55.805Z,97339.59
2023-04-25T19:14:57.118Z,97346.34
2023-04-25T19:16:59.615Z,97343.69
2023-04-25T19:19:02.223Z,97350.38
2023-04-25T19:21:05.487Z,97350.19
2023-04-25T19:23:07.010Z,97344.94
2023-04-25T19:25:10.942Z,97347.34
2023-04-25T19:27:12.799Z,97348.94
2023-04-25T19:29:14.748Z,97347.94
2023-04-25T19:31:16.407Z,97354.56
2023-04-25T19:33:17.786Z,97349.28
2023-04-25T19:35:19.180Z,97354.28
2023-04-25T19:37:20.974Z,97348.22
2023-04-25T19:39:22.294Z,97346.38
2023-04-25T19:41:23.617Z,97348.00
2023-04-25T19:43:24.918Z,97354.72
2023-04-25T19:45:26.459Z,97356.34
2023-04-25T19:47:31.096Z,97349.56
2023-04-25T19:49:32.462Z,97349.53
2023-04-25T19:51:34.024Z,97349.56
2023-04-25T19:53:35.491Z,97345.28
2023-04-25T19:55:37.024Z,97347.84
2023-04-25T19:57:38.455Z,97349.63
2023-04-25T19:59:39.772Z,97353.03
2023-04-25T20:01:41.360Z,97357.41
2023-04-25T20:03:48.265Z,97354.06
2023-04-25T20:05:52.640Z,97361.00
2023-04-25T20:07:53.935Z,97355.16
2023-04-25T20:09:55.234Z,97366.28
2023-04-25T20:11:56.567Z,97358.78
2023-04-25T20:13:57.924Z,97362.31
2023-04-25T20:16:01.935Z,97354.81
2023-04-25T20:18:04.575Z,97359.06
2023-04-25T20:20:06.496Z,97360.00
2023-04-25T20:22:07.886Z,97364.28
2023-04-25T20:24:09.263Z,97360.88
2023-04-25T20:26:11.887Z,97362.56
2023-04-25T20:28:13.207Z,97366.78
2023-04-25T20:30:15.485Z,97370.16
2023-04-25T20:32:16.845Z,97360.84
2023-04-25T20:34:18.150Z,97371.06
2023-04-25T20:36:19.831Z,97365.06
2023-04-25T20:38:21.172Z,97368.53
2023-04-25T20:40:22.633Z,97370.28
2023-04-25T20:42:23.933Z,97360.16
2023-04-25T20:44:25.414Z,97365.25
2023-04-25T20:46:26.997Z,97367.00
2023-04-25T20:48:28.355Z,97378.13
2023-04-25T20:50:29.688Z,97365.44
2023-04-25T20:52:31.931Z,97366.31
2023-04-25T20:54:33.723Z,97378.31
2023-04-25T20:56:35.742Z,97378.31
2023-04-25T20:58:37.073Z,97368.06
2023-04-25T21:00:39.012Z,97365.44
2023-04-25T21:02:40.499Z,97370.47
2023-04-25T21:04:41.886Z,97373.69
2023-04-25T21:06:43.338Z,97379.50
2023-04-25T21:08:44.628Z,97378.47
2023-04-25T21:10:45.986Z,97377.53
2023-04-25T21:12:51.697Z,97375.66
2023-04-25T21:14:53.019Z,97378.09
2023-04-25T21:16:54.510Z,97384.75
2023-04-25T21:18:55.907Z,97374.38
2023-04-25T21:20:57.218Z,97379.97
2023-04-25T21:22:58.545Z,97376.13
2023-04-25T21:25:05.965Z,97377.31
2023-04-25T21:27:08.098Z,97382.16
2023-04-25T21:29:09.616Z,97387.53
2023-04-25T21:31:11.028Z,97387.38
2023-04-25T21:33:12.513Z,97382.56
2023-04-25T21:35:13.892Z,97383.28
2023-04-25T21:37:15.239Z,97393.88
2023-04-25T21:39:16.529Z,97390.19
2023-04-25T21:41:17.822Z,97395.34
2023-04-25T21:43:19.147Z,97392.66
2023-04-25T21:45:20.516Z,97391.69
2023-04-25T21:47:24.831Z,97391.53
2023-04-25T21:49:29.474Z,97399.91
2023-04-25T21:51:32.145Z,97396.22
2023-04-25T21:53:34.052Z,97400.09
2023-04-25T21:55:35.451Z,97397.47
2023-04-25T21:57:36.774Z,97395.94
2023-04-25T21:59:38.095Z,97399.16
2023-04-25T22:01:44.199Z,97398.66
2023-04-25T22:04:04.577Z,97405.16
2023-04-25T22:06:06.332Z,97406.25
2023-04-25T22:08:07.640Z,97399.63
2023-04-25T22:10:09.067Z,97407.75
2023-04-25T22:12:10.369Z,97407.19
2023-04-25T22:14:11.847Z,97400.44
2023-04-25T22:16:13.171Z,97403.84
2023-04-25T22:18:16.301Z,97409.78
2023-04-25T22:20:20.220Z,97409.00
2023-04-25T22:22:21.707Z,97412.59
2023-04-25T22:24:24.546Z,97410.06
2023-04-25T22:26:25.845Z,97412.44
2023-04-25T22:28:28.106Z,97416.94
2023-04-25T22:30:31.175Z,97423.41
2023-04-25T22:32:32.814Z,97428.53
2023-04-25T22:34:34.168Z,97425.53
2023-04-25T22:36:35.516Z,97425.25
2023-04-25T22:38:41.056Z,97428.19
2023-04-25T22:40:42.388Z,97439.78
2023-04-25T22:42:44.326Z,97433.47
2023-04-25T22:44:46.243Z,97435.59
2023-04-25T22:46:47.553Z,97436.06
2023-04-25T22:48:49.026Z,97436.13
2023-04-25T22:50:51.129Z,97438.22
2023-04-25T22:52:52.599Z,97434.13
2023-04-25T22:54:54.043Z,97441.81
2023-04-25T22:57:01.103Z,97432.44
2023-04-25T22:59:02.432Z,97440.38
2023-04-25T23:01:03.877Z,97438.34
2023-04-25T23:03:06.080Z,97448.34
2023-04-25T23:05:07.615Z,97449.41
2023-04-25T23:07:08.947Z,97452.19
2023-04-25T23:09:12.327Z,97454.84
2023-04-25T23:11:14.141Z,97453.00
2023-04-25T23:13:15.515Z,97452.63
2023-04-25T23:15:16.828Z,97446.91
2023-04-25T23:17:18.322Z,97457.06
2023-04-25T23:19:20.234Z,97452.94
2023-04-25T23:21:21.665Z,97457.50
2023-04-25T23:25:24.679Z,97449.91
2023-04-25T23:27:25.980Z,97461.69
2023-04-25T23:29:27.309Z,97461.75
2023-04-25T23:31:29.468Z,97474.84
2023-04-25T23:33:30.877Z,97461.44
2023-04-25T23:35:32.164Z,97460.75
2023-04-25T23:37:33.464Z,97464.25
2023-04-25T23:39:34.795Z,97463.31
2023-04-25T23:41:36.566Z,97463.16
2023-04-25T23:43:37.902Z,97477.75
2023-04-25T23:45:40.127Z,97478.59
2023-04-25T23:47:41.764Z,97482.84
2023-04-25T23:49:43.087Z,97472.03
2023-04-25T23:51:44.460Z,97473.34